Time;durP1;ratioP1;P1;durP2;ratioP2;P2;SDS_P1;SDS_P2;PMS_P1;PMS_P2;Temp;Humidity;BMP_temperature;BMP_pressure;BME280_temperature;BME280_humidity;BME280_pressure;Samples;Min_cycle;Max_cycle;Signal;HPM_P1;HPM_P2
2022/01/27 00:07:43;;;;;;;21.73;8.52;;;2.60;99.90;;;;;;5080362;28;20422;-68
2022/01/27 00:10:22;;;;;;;24.67;9.40;;;2.60;99.90;;;;;;5080344;28;20070;-68
2022/01/27 00:12:51;;;;;;;29.40;8.77;;;2.60;99.90;;;;;;5079929;28;20347;-68
2022/01/27 00:15:27;;;;;;;22.75;8.93;;;2.60;99.90;;;;;;5079953;28;20371;-68
2022/01/27 00:21:47;;;;;;;19.63;7.90;;;2.60;99.90;;;;;;5079205;28;20028;-68
2022/01/27 00:24:15;;;;;;;21.05;7.50;;;2.60;99.90;;;;;;5079426;28;20109;-68
2022/01/27 00:26:43;;;;;;;25.67;9.77;;;2.60;99.90;;;;;;5097777;28;20056;-68
2022/01/27 00:29:10;;;;;;;21.52;7.75;;;2.60;99.90;;;;;;5081004;28;20060;-68
2022/01/27 00:31:38;;;;;;;25.45;8.48;;;2.60;99.90;;;;;;5081020;28;20046;-68
2022/01/27 00:34:05;;;;;;;18.05;8.65;;;2.60;99.90;;;;;;5098844;28;20016;-68
2022/01/27 00:36:33;;;;;;;19.55;8.07;;;2.60;99.90;;;;;;5080881;28;20026;-68
2022/01/27 00:39:01;;;;;;;18.58;8.90;;;2.60;99.90;;;;;;5099361;28;20027;-68
2022/01/27 00:41:28;;;;;;;21.00;7.75;;;2.60;99.90;;;;;;5099635;28;20111;-68
2022/01/27 00:43:56;;;;;;;19.77;9.05;;;2.60;99.90;;;;;;5082400;28;20020;-68
2022/01/27 00:46:24;;;;;;;18.65;7.57;;;2.70;99.90;;;;;;5099726;28;20087;-68
2022/01/27 00:48:52;;;;;;;18.58;8.25;;;2.60;99.90;;;;;;5081578;28;20370;-68
2022/01/27 00:51:22;;;;;;;20.17;8.52;;;2.70;99.90;;;;;;5099507;28;20024;-68
2022/01/27 00:54:05;;;;;;;22.05;9.75;;;2.60;99.90;;;;;;5099552;28;20020;-68
2022/01/27 01:02:01;;;;;;;25.02;10.15;;;2.70;99.90;;;;;;5098811;28;20070;-68
2022/01/27 01:04:35;;;;;;;23.60;10.05;;;2.60;99.90;;;;;;5098346;28;20416;-68
2022/01/27 01:07:05;;;;;;;26.58;9.80;;;2.70;99.90;;;;;;5098302;28;20027;-68
2022/01/27 01:10:26;;;;;;;24.60;9.70;;;2.70;99.90;;;;;;5098124;28;20057;-68
2022/01/27 01:15:18;;;;;;;20.60;10.27;;;2.70;99.90;;;;;;5098574;28;20024;-68
2022/01/27 01:31:46;;;;;;;35.78;14.32;;;2.60;99.90;;;;;;5099115;28;20110;-68
2022/01/27 01:34:25;;;;;;;39.05;15.63;;;2.60;99.90;;;;;;5098567;28;20028;-68
2022/01/27 01:36:57;;;;;;;45.53;16.10;;;2.50;99.90;;;;;;5098679;28;20024;-68
2022/01/27 01:39:31;;;;;;;40.88;16.58;;;2.50;99.90;;;;;;5098342;28;20034;-68
2022/01/27 01:41:59;;;;;;;37.35;16.48;;;2.50;99.90;;;;;;5097842;28;20074;-68
2022/01/27 01:44:26;;;;;;;44.35;18.73;;;2.50;99.90;;;;;;5097511;28;20335;-68
2022/01/27 01:46:54;;;;;;;33.20;15.18;;;2.50;99.90;;;;;;5097462;28;20098;-68
2022/01/27 01:49:26;;;;;;;39.80;17.00;;;2.50;99.90;;;;;;5097362;28;20026;-68
2022/01/27 01:51:57;;;;;;;35.72;17.13;;;2.50;99.90;;;;;;5097255;28;20017;-68
2022/01/27 01:54:24;;;;;;;51.50;19.38;;;2.50;99.90;;;;;;5097224;28;20032;-68
2022/01/27 01:56:52;;;;;;;47.75;20.08;;;2.50;99.90;;;;;;5097498;28;20095;-68
2022/01/27 01:59:20;;;;;;;48.90;20.67;;;2.50;99.90;;;;;;5097257;28;20047;-68
2022/01/27 02:01:48;;;;;;;46.47;20.23;;;2.50;99.90;;;;;;5097435;28;20024;-68
2022/01/27 02:04:16;;;;;;;40.75;19.17;;;2.50;99.90;;;;;;5097860;28;20039;-68
2022/01/27 02:09:25;;;;;;;51.97;21.00;;;2.60;99.90;;;;;;5097922;28;20020;-68
2022/01/27 02:20:14;;;;;;;53.35;20.83;;;2.70;99.90;;;;;;5098361;28;20316;-68
2022/01/27 02:22:42;;;;;;;57.80;20.00;;;2.70;99.90;;;;;;5097546;28;20038;-68
2022/01/27 02:25:10;;;;;;;49.30;19.75;;;2.70;99.90;;;;;;5096577;28;20079;-69
2022/01/27 02:27:37;;;;;;;53.42;21.95;;;2.70;99.90;;;;;;5096755;28;20032;-68
2022/01/27 02:30:06;;;;;;;50.83;22.55;;;2.70;99.90;;;;;;5097260;28;20456;-68
2022/01/27 02:32:33;;;;;;;52.08;23.08;;;2.70;99.90;;;;;;5096817;28;20016;-69
2022/01/27 02:35:01;;;;;;;49.47;21.30;;;2.70;99.90;;;;;;5097378;28;20458;-68
2022/01/27 02:37:29;;;;;;;55.28;20.73;;;2.70;99.90;;;;;;5096750;28;20023;-68
2022/01/27 02:39:56;;;;;;;41.80;18.98;;;2.70;99.90;;;;;;5097190;28;20119;-68
2022/01/27 02:42:34;;;;;;;39.58;20.05;;;2.70;99.90;;;;;;5096323;28;20297;-68
2022/01/27 02:45:27;;;;;;;47.33;19.85;;;2.70;99.90;;;;;;5078785;28;20028;-69
2022/01/27 02:47:54;;;;;;;57.67;23.25;;;2.70;99.90;;;;;;5097454;28;20028;-68
2022/01/27 02:50:21;;;;;;;43.22;18.95;;;2.60;99.90;;;;;;5098032;28;20031;-68
2022/01/27 02:52:49;;;;;;;53.08;23.83;;;2.60;99.90;;;;;;5097436;28;20420;-68
2022/01/27 02:55:16;;;;;;;50.00;22.27;;;2.60;99.90;;;;;;5097664;28;20028;-68
2022/01/27 02:57:43;;;;;;;49.85;22.15;;;2.60;99.90;;;;;;5080176;28;20020;-68
2022/01/27 03:00:11;;;;;;;45.03;21.00;;;2.60;99.90;;;;;;5097382;28;20473;-68
2022/01/27 03:02:38;;;;;;;63.42;24.50;;;2.60;99.90;;;;;;5097453;28;20067;-68
2022/01/27 03:05:05;;;;;;;43.70;21.23;;;2.70;99.90;;;;;;5079580;28;20031;-68
2022/01/27 03:07:33;;;;;;;56.03;22.02;;;2.60;99.90;;;;;;5096237;28;20032;-68
2022/01/27 03:10:00;;;;;;;45.15;20.90;;;2.60;99.90;;;;;;5078748;28;20020;-69
2022/01/27 03:12:29;;;;;;;53.58;21.27;;;2.60;99.90;;;;;;5062007;28;20035;-69
2022/01/27 03:14:58;;;;;;;64.60;24.67;;;2.60;99.90;;;;;;5097172;28;20028;-68
2022/01/27 03:17:25;;;;;;;39.35;16.95;;;2.60;99.90;;;;;;5096263;28;20039;-68
2022/01/27 03:19:52;;;;;;;55.17;23.27;;;2.50;99.90;;;;;;5096613;28;20025;-69
2022/01/27 03:22:19;;;;;;;43.58;21.38;;;2.50;99.90;;;;;;5096298;28;20027;-68
2022/01/27 03:24:47;;;;;;;56.92;23.08;;;2.50;99.90;;;;;;5096181;28;20020;-69
2022/01/27 03:27:19;;;;;;;43.28;20.75;;;2.50;99.90;;;;;;5096759;28;20319;-69
2022/01/27 03:29:47;;;;;;;40.72;18.65;;;2.50;99.90;;;;;;5097039;28;20044;-68
2022/01/27 03:32:14;;;;;;;39.30;17.92;;;2.50;99.90;;;;;;5097107;28;20489;-68
2022/01/27 03:34:42;;;;;;;55.65;23.02;;;2.40;99.90;;;;;;5079661;28;20433;-68
2022/01/27 03:37:09;;;;;;;47.17;17.85;;;2.40;99.90;;;;;;5079699;28;20044;-68
2022/01/27 03:39:39;;;;;;;43.63;18.58;;;2.40;99.90;;;;;;5079095;28;20032;-68
2022/01/27 03:42:07;;;;;;;41.30;20.13;;;2.40;99.90;;;;;;5097025;28;20020;-68
2022/01/27 03:44:35;;;;;;;41.90;20.52;;;2.40;99.90;;;;;;5097336;28;20020;-68
2022/01/27 03:47:03;;;;;;;44.13;19.65;;;2.40;99.90;;;;;;5097695;28;20016;-69
2022/01/27 03:49:30;;;;;;;36.22;17.13;;;2.40;99.90;;;;;;5096312;28;20435;-69
2022/01/27 03:52:00;;;;;;;42.40;17.77;;;2.40;99.90;;;;;;5096064;28;20024;-68
2022/01/27 03:54:30;;;;;;;39.13;17.83;;;2.40;99.90;;;;;;5082132;28;20146;-69
2022/01/27 03:56:58;;;;;;;38.30;19.25;;;2.30;99.90;;;;;;5099708;28;20020;-69
2022/01/27 03:59:26;;;;;;;39.38;19.50;;;2.40;99.90;;;;;;5099509;28;20024;-68
2022/01/27 04:01:55;;;;;;;50.75;20.75;;;2.30;99.90;;;;;;5081866;28;20051;-69
2022/01/27 04:04:23;;;;;;;42.97;19.33;;;2.30;99.90;;;;;;5081555;28;20423;-68
2022/01/27 04:06:52;;;;;;;45.20;18.05;;;2.30;99.90;;;;;;5099672;28;20024;-68
2022/01/27 04:09:20;;;;;;;34.35;17.23;;;2.40;99.90;;;;;;5099178;28;20028;-68
2022/01/27 04:11:47;;;;;;;40.08;18.40;;;2.30;99.90;;;;;;5099979;28;20412;-68
2022/01/27 04:14:14;;;;;;;46.42;20.92;;;2.30;99.90;;;;;;5100168;28;20363;-68
2022/01/27 04:16:42;;;;;;;37.33;17.73;;;2.30;99.90;;;;;;5082927;28;20024;-68
2022/01/27 04:19:09;;;;;;;41.55;16.50;;;2.30;99.90;;;;;;5082291;28;20049;-69
2022/01/27 04:21:37;;;;;;;39.13;15.80;;;2.30;99.90;;;;;;5082266;28;20028;-68
2022/01/27 04:24:05;;;;;;;29.85;13.32;;;2.30;99.90;;;;;;5082111;28;20036;-68
2022/01/27 04:26:46;;;;;;;46.85;19.58;;;2.40;99.90;;;;;;5100037;28;20048;-68
2022/01/27 04:29:15;;;;;;;47.25;17.00;;;2.30;99.90;;;;;;5100022;28;20031;-68
2022/01/27 04:31:44;;;;;;;39.95;18.90;;;2.30;99.90;;;;;;5099293;28;20365;-68
2022/01/27 04:34:13;;;;;;;40.83;18.13;;;2.30;99.90;;;;;;5098751;28;20487;-68
2022/01/27 04:36:41;;;;;;;35.42;16.27;;;2.30;99.90;;;;;;5098762;28;20028;-68
2022/01/27 04:39:17;;;;;;;39.03;18.02;;;2.30;99.90;;;;;;5098672;28;20367;-68
2022/01/27 04:47:19;;;;;;;36.08;14.32;;;2.40;99.90;;;;;;5083801;28;20098;-68
2022/01/27 04:49:47;;;;;;;48.75;18.83;;;2.30;99.90;;;;;;5098826;28;20374;-68
2022/01/27 04:52:14;;;;;;;44.88;17.13;;;2.30;99.90;;;;;;5098478;28;20420;-69
2022/01/27 04:57:09;;;;;;;44.50;19.38;;;2.30;99.90;;;;;;5099455;28;20024;-69
2022/01/27 04:59:41;;;;;;;42.65;19.02;;;2.30;99.90;;;;;;5099678;28;20044;-69
2022/01/27 05:02:19;;;;;;;35.70;16.63;;;2.40;99.90;;;;;;5099699;28;20020;-69
2022/01/27 05:04:50;;;;;;;41.35;18.33;;;2.30;99.90;;;;;;5099309;28;20044;-68
2022/01/27 05:07:18;;;;;;;40.50;16.85;;;2.40;99.90;;;;;;5099063;28;20070;-68
2022/01/27 05:09:57;;;;;;;41.65;16.35;;;2.40;99.90;;;;;;5099588;28;20024;-68
2022/01/27 05:12:42;;;;;;;32.22;16.38;;;2.40;99.90;;;;;;5098940;28;20020;-68
2022/01/27 05:15:10;;;;;;;35.90;16.67;;;2.50;99.90;;;;;;5083560;28;20040;-68
2022/01/27 05:17:38;;;;;;;39.80;17.05;;;2.50;99.90;;;;;;5080168;28;20024;-68
2022/01/27 05:20:06;;;;;;;35.75;14.07;;;2.50;99.90;;;;;;5098766;28;20116;-68
2022/01/27 05:22:33;;;;;;;33.88;16.55;;;2.50;99.90;;;;;;5097961;28;20020;-69
2022/01/27 05:25:00;;;;;;;39.40;17.15;;;2.50;99.90;;;;;;5098048;28;20436;-68
2022/01/27 05:27:27;;;;;;;27.95;13.15;;;2.50;99.90;;;;;;5097921;28;20103;-68
2022/01/27 05:29:54;;;;;;;40.78;16.33;;;2.50;99.90;;;;;;5097924;28;20149;-68
2022/01/27 05:32:21;;;;;;;39.00;14.60;;;2.50;99.90;;;;;;5097752;28;20035;-68
2022/01/27 05:34:48;;;;;;;38.53;15.65;;;2.50;99.90;;;;;;5098912;28;20335;-69
2022/01/27 05:37:16;;;;;;;35.10;15.05;;;2.50;99.90;;;;;;5098339;28;20404;-68
2022/01/27 05:39:43;;;;;;;39.90;18.40;;;2.60;99.90;;;;;;5064155;28;20024;-69
2022/01/27 05:42:11;;;;;;;28.33;13.32;;;2.60;99.90;;;;;;5099116;28;20024;-68
2022/01/27 05:44:38;;;;;;;37.10;17.33;;;2.50;99.90;;;;;;5099130;28;20103;-69
2022/01/27 05:47:06;;;;;;;39.17;15.93;;;2.60;99.90;;;;;;5098967;28;20062;-68
2022/01/27 05:49:40;;;;;;;34.50;15.10;;;2.50;99.90;;;;;;5098472;28;20059;-68
2022/01/27 05:52:09;;;;;;;27.73;13.13;;;2.50;99.90;;;;;;5098313;28;20103;-69
2022/01/27 05:54:36;;;;;;;33.00;15.63;;;2.60;99.90;;;;;;5098616;28;20396;-69
2022/01/27 05:57:03;;;;;;;34.72;14.48;;;2.60;99.90;;;;;;5097685;28;20050;-68
2022/01/27 05:59:31;;;;;;;38.55;14.23;;;2.60;99.90;;;;;;5079503;28;20024;-69
2022/01/27 06:01:58;;;;;;;25.83;13.05;;;2.60;99.90;;;;;;5097228;28;20054;-68
2022/01/27 06:04:26;;;;;;;36.05;16.10;;;2.60;99.90;;;;;;5079340;28;20020;-69
2022/01/27 06:06:53;;;;;;;30.75;16.15;;;2.70;99.90;;;;;;5079934;28;20035;-68
2022/01/27 06:09:20;;;;;;;28.38;13.23;;;2.70;99.90;;;;;;5097439;28;20051;-69
2022/01/27 06:11:48;;;;;;;37.17;17.05;;;2.70;99.90;;;;;;5097246;28;20062;-68
2022/01/27 06:14:15;;;;;;;30.13;16.33;;;2.70;99.90;;;;;;5062466;28;20101;-69
2022/01/27 06:16:44;;;;;;;33.20;15.27;;;2.70;99.90;;;;;;5097421;28;20016;-69
2022/01/27 06:19:13;;;;;;;31.38;13.85;;;2.70;99.90;;;;;;5097369;28;20024;-69
2022/01/27 06:21:42;;;;;;;38.10;16.50;;;2.70;99.90;;;;;;5098298;28;20020;-68
2022/01/27 06:24:11;;;;;;;33.05;15.07;;;2.70;99.90;;;;;;5098024;28;20024;-69
2022/01/27 06:26:38;;;;;;;32.35;15.10;;;2.70;99.90;;;;;;5076359;28;20045;-69
2022/01/27 06:29:05;;;;;;;38.95;16.40;;;2.80;99.90;;;;;;5077673;28;20412;-69
2022/01/27 06:31:33;;;;;;;27.55;12.38;;;2.80;99.90;;;;;;5077713;28;20025;-68
2022/01/27 06:34:02;;;;;;;32.65;13.73;;;2.80;99.90;;;;;;5077421;28;20040;-68
2022/01/27 06:36:29;;;;;;;29.98;16.02;;;2.80;99.90;;;;;;5077050;28;20452;-68
2022/01/27 06:38:57;;;;;;;28.85;13.13;;;2.80;99.90;;;;;;5076242;28;20024;-69
2022/01/27 06:41:24;;;;;;;34.85;15.90;;;2.90;99.90;;;;;;5058657;28;20024;-69
2022/01/27 06:43:54;;;;;;;33.92;15.82;;;2.90;99.90;;;;;;5076441;28;20028;-69
2022/01/27 06:46:22;;;;;;;37.05;15.70;;;2.90;99.90;;;;;;5076289;28;20363;-68
2022/01/27 06:48:49;;;;;;;34.10;16.65;;;2.90;99.90;;;;;;5076636;28;20020;-69
2022/01/27 06:51:17;;;;;;;34.88;15.35;;;2.90;99.90;;;;;;5076280;28;20025;-68
2022/01/27 06:53:44;;;;;;;37.42;17.17;;;3.00;99.90;;;;;;5077118;28;20508;-69
2022/01/27 06:56:11;;;;;;;37.97;16.20;;;3.00;99.90;;;;;;5076391;28;20304;-69
2022/01/27 06:58:39;;;;;;;38.75;15.23;;;3.00;99.90;;;;;;5076840;28;20032;-69
2022/01/27 07:01:07;;;;;;;34.60;14.65;;;3.00;99.90;;;;;;5075552;28;20025;-69
2022/01/27 07:03:34;;;;;;;35.42;16.13;;;3.00;99.90;;;;;;5077185;28;20021;-69
2022/01/27 07:06:01;;;;;;;39.72;17.42;;;3.00;99.90;;;;;;5059639;28;20029;-68
2022/01/27 07:08:28;;;;;;;32.92;14.90;;;3.00;99.90;;;;;;5076973;28;20108;-69
2022/01/27 07:10:56;;;;;;;36.00;14.27;;;2.90;99.90;;;;;;5077069;28;20021;-69
2022/01/27 07:13:23;;;;;;;36.13;16.05;;;2.80;99.90;;;;;;5059278;28;20020;-69
2022/01/27 07:15:51;;;;;;;42.03;15.25;;;2.90;99.90;;;;;;5077833;28;20020;-71
2022/01/27 07:18:19;;;;;;;36.10;17.23;;;2.80;99.90;;;;;;5076909;28;20029;-71
2022/01/27 07:20:46;;;;;;;40.97;19.63;;;2.80;99.90;;;;;;5075841;28;20024;-71
2022/01/27 07:23:14;;;;;;;36.70;15.68;;;2.90;99.90;;;;;;5076323;28;20024;-71
2022/01/27 07:25:43;;;;;;;37.30;15.20;;;2.90;99.90;;;;;;5075244;28;20391;-71
2022/01/27 07:28:10;;;;;;;36.92;15.68;;;2.90;99.90;;;;;;5076554;28;20116;-71
2022/01/27 07:30:37;;;;;;;39.42;18.58;;;2.90;99.90;;;;;;5080084;28;20096;-70
2022/01/27 07:33:05;;;;;;;38.47;16.30;;;2.90;99.90;;;;;;5080041;28;20386;-73
2022/01/27 07:35:32;;;;;;;43.53;17.50;;;2.90;99.90;;;;;;5080005;28;20027;-73
2022/01/27 07:37:59;;;;;;;34.40;14.82;;;2.90;99.90;;;;;;5079721;28;20112;-71
2022/01/27 07:40:28;;;;;;;34.65;15.45;;;2.90;99.90;;;;;;5078840;28;20024;-70
2022/01/27 07:42:56;;;;;;;37.17;15.93;;;2.80;99.90;;;;;;5079677;28;20021;-71
2022/01/27 07:45:23;;;;;;;43.90;16.73;;;2.80;99.90;;;;;;5080632;28;20325;-67
2022/01/27 07:47:51;;;;;;;38.95;14.75;;;2.80;99.90;;;;;;5079335;28;20032;-70
2022/01/27 07:50:18;;;;;;;40.22;17.00;;;2.80;99.90;;;;;;5080741;28;20013;-67
2022/01/27 07:52:46;;;;;;;41.72;15.85;;;2.90;99.90;;;;;;5080915;28;20020;-69
2022/01/27 07:55:13;;;;;;;38.83;16.23;;;2.90;99.90;;;;;;5080614;28;20409;-68
2022/01/27 07:57:41;;;;;;;39.15;16.33;;;2.90;99.90;;;;;;5080877;28;20045;-69
2022/01/27 08:00:10;;;;;;;34.70;14.45;;;2.90;99.90;;;;;;5080256;28;20023;-68
2022/01/27 08:02:36;;;;;;;32.78;14.23;;;2.90;99.90;;;;;;5080708;28;20024;-68
2022/01/27 08:05:04;;;;;;;34.00;14.25;;;3.00;99.90;;;;;;5045049;28;20100;-68
2022/01/27 08:07:31;;;;;;;42.13;13.60;;;3.00;99.90;;;;;;5079692;28;20024;-68
2022/01/27 08:09:58;;;;;;;30.73;13.85;;;3.10;99.90;;;;;;5079274;28;20027;-68
2022/01/27 08:12:26;;;;;;;27.05;14.20;;;3.10;99.90;;;;;;5079656;28;20016;-68
2022/01/27 08:14:53;;;;;;;28.67;12.25;;;3.10;99.90;;;;;;5078307;28;20021;-67
2022/01/27 08:17:21;;;;;;;25.48;10.43;;;3.10;99.90;;;;;;5078057;28;20045;-68
2022/01/27 08:19:48;;;;;;;27.58;12.82;;;3.10;99.90;;;;;;5079630;28;20035;-68
2022/01/27 08:22:16;;;;;;;25.27;12.32;;;3.20;99.90;;;;;;5077819;28;20391;-68
2022/01/27 08:24:43;;;;;;;22.35;10.73;;;3.20;99.90;;;;;;5080411;28;20104;-68
2022/01/27 08:27:14;;;;;;;23.58;9.52;;;3.20;99.90;;;;;;5100560;28;20024;-67
2022/01/27 08:29:48;;;;;;;32.03;12.35;;;3.20;99.90;;;;;;5082797;28;20032;-68
2022/01/27 08:32:19;;;;;;;24.23;11.38;;;3.20;99.90;;;;;;5100796;28;20023;-70
2022/01/27 08:34:47;;;;;;;24.10;12.75;;;3.20;99.90;;;;;;5100495;28;20294;-68
2022/01/27 08:37:21;;;;;;;21.50;11.32;;;3.30;99.90;;;;;;5099854;28;20016;-67
2022/01/27 08:39:49;;;;;;;24.50;11.48;;;3.30;99.90;;;;;;5098506;28;20138;-67
2022/01/27 08:42:16;;;;;;;32.53;11.90;;;3.30;99.90;;;;;;5081738;28;20064;-68
2022/01/27 08:44:44;;;;;;;27.70;11.05;;;3.30;99.90;;;;;;5081620;28;20016;-67
2022/01/27 08:47:12;;;;;;;26.48;12.50;;;3.30;99.90;;;;;;5080656;28;20487;-67
2022/01/27 08:49:42;;;;;;;27.25;12.32;;;3.30;99.90;;;;;;5099320;28;20312;-68
2022/01/27 08:52:10;;;;;;;20.10;9.98;;;3.30;99.90;;;;;;5098538;28;20028;-68
2022/01/27 08:54:37;;;;;;;24.48;10.25;;;3.30;99.90;;;;;;5098522;28;20024;-67
2022/01/27 08:57:05;;;;;;;24.45;12.07;;;3.40;99.90;;;;;;5098559;28;20422;-68
2022/01/27 08:59:33;;;;;;;21.08;10.40;;;3.40;99.90;;;;;;5099008;28;20362;-68
2022/01/27 09:02:01;;;;;;;25.67;10.32;;;3.40;99.90;;;;;;5099064;28;20024;-68
2022/01/27 09:04:28;;;;;;;20.05;10.10;;;3.50;99.90;;;;;;5099017;28;20020;-68
2022/01/27 09:06:56;;;;;;;18.55;8.50;;;3.50;99.90;;;;;;5080501;28;20142;-68
2022/01/27 09:09:23;;;;;;;19.50;9.25;;;3.40;99.90;;;;;;5099159;28;20024;-67
2022/01/27 09:11:51;;;;;;;18.83;9.82;;;3.40;99.90;;;;;;5099283;28;20105;-68
2022/01/27 09:14:19;;;;;;;19.00;9.10;;;3.50;99.90;;;;;;5099097;28;20024;-67
2022/01/27 09:16:46;;;;;;;19.58;8.63;;;3.50;99.90;;;;;;5099641;28;20107;-68
2022/01/27 09:19:14;;;;;;;19.80;9.85;;;3.50;99.90;;;;;;5099662;28;20023;-68
2022/01/27 09:21:46;;;;;;;14.43;6.97;;;3.50;99.90;;;;;;5099246;28;20035;-68
2022/01/27 09:24:19;;;;;;;12.57;6.60;;;3.60;99.90;;;;;;5082357;28;20023;-68
2022/01/27 09:29:16;;;;;;;13.80;7.30;;;3.70;99.90;;;;;;5077660;28;20025;-68
2022/01/27 09:31:43;;;;;;;22.15;8.15;;;3.70;99.90;;;;;;5078129;28;20024;-68
2022/01/27 09:34:11;;;;;;;16.48;8.10;;;3.70;99.90;;;;;;5077620;28;20417;-68
2022/01/27 09:36:38;;;;;;;17.13;7.97;;;3.70;99.90;;;;;;5077195;28;20021;-68
2022/01/27 09:39:06;;;;;;;13.13;6.97;;;3.70;99.90;;;;;;5077462;28;20017;-68
2022/01/27 09:41:39;;;;;;;12.68;6.43;;;3.80;99.90;;;;;;5078586;28;20282;-72
2022/01/27 09:44:13;;;;;;;11.70;6.70;;;3.80;99.90;;;;;;5077365;28;20017;-67
2022/01/27 09:46:46;;;;;;;14.40;7.38;;;3.80;99.90;;;;;;5077427;28;20108;-68
2022/01/27 09:49:17;;;;;;;12.13;5.93;;;3.90;99.90;;;;;;5077433;28;20078;-68
2022/01/27 09:51:47;;;;;;;16.30;7.60;;;3.90;99.90;;;;;;5078366;28;20341;-68
2022/01/27 09:54:16;;;;;;;11.20;6.18;;;3.90;99.90;;;;;;5078032;28;20505;-67
2022/01/27 09:56:43;;;;;;;15.45;7.32;;;4.00;99.90;;;;;;5078057;28;20107;-68
2022/01/27 09:59:10;;;;;;;10.27;5.55;;;4.00;99.90;;;;;;5078084;28;20150;-67
2022/01/27 10:01:52;;;;;;;10.55;5.15;;;4.00;99.90;;;;;;5078225;28;20024;-68
2022/01/27 10:04:20;;;;;;;8.73;5.45;;;4.10;99.90;;;;;;5078034;28;20020;-68
2022/01/27 10:06:56;;;;;;;11.32;6.03;;;4.10;99.90;;;;;;5078625;28;20035;-68
2022/01/27 10:09:29;;;;;;;;;;;4.10;99.90;;;;;;5077756;28;20020;-67
2022/01/27 10:12:03;;;;;;;12.57;6.28;;;4.10;99.90;;;;;;5076802;28;19930;-67
2022/01/27 10:14:38;;;;;;;9.52;5.65;;;4.20;99.90;;;;;;5075767;28;20032;-67
2022/01/27 10:17:13;;;;;;;11.23;6.60;;;4.30;99.90;;;;;;5076774;28;20075;-68
2022/01/27 10:19:41;;;;;;;12.38;6.57;;;4.30;99.90;;;;;;5076893;28;20058;-68
2022/01/27 10:22:17;;;;;;;10.82;5.93;;;4.30;99.90;;;;;;5075662;28;20345;-68
2022/01/27 10:24:44;;;;;;;;;;;4.30;99.90;;;;;;5078958;28;20039;-68
2022/01/27 10:27:46;;;;;;;14.48;6.13;;;4.30;99.90;;;;;;5097190;28;19939;-67
2022/01/27 10:32:59;;;;;;;10.55;6.60;;;4.30;99.90;;;;;;5097888;28;20020;-67
2022/01/27 10:35:28;;;;;;;12.43;7.13;;;4.30;99.90;;;;;;5097506;28;20028;-67
2022/01/27 10:38:02;;;;;;;9.63;5.90;;;4.40;99.90;;;;;;5079810;28;20443;-67
2022/01/27 10:40:37;;;;;;;11.57;6.10;;;4.40;99.90;;;;;;5097999;28;20033;-67
2022/01/27 10:43:13;;;;;;;10.82;5.68;;;4.40;99.90;;;;;;5079638;28;20024;-67
2022/01/27 10:46:05;;;;;;;11.30;6.97;;;4.50;99.90;;;;;;5098248;28;20023;-67
2022/01/27 10:48:41;;;;;;;19.52;8.02;;;4.50;99.90;;;;;;5097459;28;20016;-67
2022/01/27 10:51:17;;;;;;;10.70;5.72;;;4.50;99.90;;;;;;5097524;28;20420;-67
2022/01/27 10:53:57;;;;;;;8.55;5.38;;;4.60;99.90;;;;;;5097095;28;20024;-67
2022/01/27 10:56:35;;;;;;;12.85;6.13;;;4.60;99.90;;;;;;5096274;28;20070;-68
2022/01/27 10:59:04;;;;;;;9.90;5.68;;;4.70;99.90;;;;;;5097123;28;20028;-67
2022/01/27 11:01:40;;;;;;;8.95;5.13;;;4.70;99.90;;;;;;5096708;28;20024;-67
2022/01/27 11:04:11;;;;;;;12.65;6.72;;;4.70;99.90;;;;;;5100585;28;20099;-68
2022/01/27 11:06:58;;;;;;;11.27;5.20;;;4.80;99.90;;;;;;5100627;28;20121;-67
2022/01/27 11:09:27;;;;;;;9.55;5.25;;;4.80;99.90;;;;;;5100571;28;20077;-68
2022/01/27 11:11:56;;;;;;;12.27;7.40;;;4.70;99.90;;;;;;5100764;28;20100;-68
2022/01/27 11:14:25;;;;;;;9.02;5.15;;;4.70;99.90;;;;;;5100677;28;20016;-68
2022/01/27 11:16:58;;;;;;;10.93;5.53;;;4.70;99.90;;;;;;5101451;28;20035;-68
2022/01/27 11:22:39;;;;;;;8.30;4.72;;;4.70;99.90;;;;;;5084473;28;20436;-67
2022/01/27 11:27:39;;;;;;;9.35;5.57;;;4.70;99.90;;;;;;5101285;28;20027;-68
2022/01/27 11:30:18;;;;;;;8.67;5.47;;;4.80;99.90;;;;;;5083196;28;20040;-67
2022/01/27 11:33:00;;;;;;;11.93;5.63;;;4.80;99.90;;;;;;5083178;28;20021;-68
2022/01/27 11:35:27;;;;;;;9.93;5.97;;;4.80;99.90;;;;;;5100396;28;20020;-68
2022/01/27 11:38:03;;;;;;;9.38;5.05;;;4.80;99.90;;;;;;5100443;28;20023;-67
2022/01/27 11:40:38;;;;;;;9.88;5.13;;;4.80;99.90;;;;;;5099802;28;20017;-68
2022/01/27 11:43:08;;;;;;;9.45;5.35;;;4.80;99.90;;;;;;5099813;28;20032;-68
2022/01/27 11:45:51;;;;;;;10.20;5.43;;;4.80;99.90;;;;;;5082123;28;20024;-70
2022/01/27 11:48:25;;;;;;;12.52;6.95;;;4.80;99.90;;;;;;5099735;28;20031;-68
2022/01/27 11:51:13;;;;;;;8.75;6.30;;;4.90;99.90;;;;;;5099731;28;20024;-67
2022/01/27 11:53:50;;;;;;;;;;;4.90;99.90;;;;;;5100144;28;20062;-68
2022/01/27 11:56:35;;;;;;;12.55;6.65;;;4.90;99.90;;;;;;5099878;28;19949;-68
2022/01/27 11:59:04;;;;;;;;;;;5.00;99.90;;;;;;5100858;28;20111;-69
2022/01/27 12:01:35;;;;;;;9.98;5.95;;;5.00;99.90;;;;;;5082541;28;19933;-70
2022/01/27 12:04:09;;;;;;;9.95;5.43;;;4.90;99.90;;;;;;5100503;28;20032;-68
2022/01/27 12:06:48;;;;;;;11.23;6.25;;;5.00;99.90;;;;;;5101006;28;20028;-68
2022/01/27 12:09:24;;;;;;;13.20;5.95;;;4.90;99.90;;;;;;5100795;28;20373;-74
2022/01/27 12:12:14;;;;;;;9.73;5.43;;;5.00;99.90;;;;;;5100667;28;20297;-68
2022/01/27 12:14:46;;;;;;;14.70;6.93;;;5.00;99.90;;;;;;5100041;28;20110;-69
2022/01/27 12:17:15;;;;;;;13.73;7.78;;;5.00;99.90;;;;;;5099779;28;20024;-69
2022/01/27 12:19:53;;;;;;;9.35;5.00;;;5.00;99.90;;;;;;5099238;28;20396;-69
2022/01/27 12:22:25;;;;;;;10.52;6.90;;;5.10;99.90;;;;;;5081269;28;20324;-68
2022/01/27 12:25:00;;;;;;;15.38;7.93;;;5.10;99.90;;;;;;5099299;28;20416;-69
2022/01/27 12:27:29;;;;;;;10.20;5.65;;;5.10;99.90;;;;;;5081292;28;20024;-69
2022/01/27 12:29:58;;;;;;;10.80;6.53;;;5.10;99.90;;;;;;5082633;28;20350;-69
2022/01/27 12:32:32;;;;;;;10.05;5.85;;;5.10;99.90;;;;;;5098953;28;20323;-69
2022/01/27 12:35:10;;;;;;;8.82;5.00;;;5.10;99.90;;;;;;5099250;28;20423;-69
2022/01/27 12:37:39;;;;;;;8.68;5.95;;;5.20;99.90;;;;;;5099315;28;20052;-69
2022/01/27 12:40:21;;;;;;;12.68;6.22;;;5.20;99.90;;;;;;5081159;28;20054;-69
2022/01/27 12:43:02;;;;;;;12.50;7.00;;;5.20;99.90;;;;;;5081873;28;20435;-69
2022/01/27 12:45:31;;;;;;;10.13;5.70;;;5.20;99.90;;;;;;5099862;28;20033;-69
2022/01/27 12:48:10;;;;;;;11.50;5.68;;;5.30;99.90;;;;;;5100138;28;20439;-69
2022/01/27 12:50:38;;;;;;;10.50;5.68;;;5.30;99.90;;;;;;5099704;28;20124;-69
2022/01/27 12:53:12;;;;;;;14.48;5.63;;;5.30;99.90;;;;;;5100144;28;20035;-69
2022/01/27 12:55:43;;;;;;;13.63;7.03;;;5.30;99.90;;;;;;5099684;28;20362;-69
2022/01/27 12:58:17;;;;;;;14.85;7.03;;;5.30;99.90;;;;;;5100079;28;20435;-69
2022/01/27 13:00:49;;;;;;;13.00;6.63;;;5.30;99.90;;;;;;5099009;28;20423;-69
2022/01/27 13:03:17;;;;;;;9.88;5.68;;;5.30;99.90;;;;;;5098376;28;20023;-69
2022/01/27 13:05:50;;;;;;;9.65;5.53;;;5.40;99.90;;;;;;5098603;28;20028;-69
2022/01/27 13:08:31;;;;;;;13.23;7.28;;;5.40;99.90;;;;;;5098219;28;20085;-69
2022/01/27 13:11:09;;;;;;;7.88;5.15;;;5.40;99.90;;;;;;5098014;28;20027;-69
2022/01/27 13:13:40;;;;;;;10.70;6.45;;;5.40;99.90;;;;;;5098121;28;20020;-69
2022/01/27 13:16:18;;;;;;;8.98;5.15;;;5.40;99.90;;;;;;5080929;28;20023;-68
2022/01/27 13:19:07;;;;;;;10.40;6.38;;;5.40;99.90;;;;;;5098596;28;20027;-68
2022/01/27 13:21:37;;;;;;;13.07;6.28;;;5.40;99.90;;;;;;5098073;28;20027;-69
2022/01/27 13:24:14;;;;;;;10.60;5.93;;;5.50;99.90;;;;;;5081484;28;20331;-68
2022/01/27 13:26:49;;;;;;;10.05;5.55;;;5.50;99.90;;;;;;5098071;28;20055;-69
2022/01/27 13:29:28;;;;;;;11.65;5.60;;;5.50;99.90;;;;;;5098647;28;20097;-69
2022/01/27 13:31:57;;;;;;;10.30;5.22;;;5.50;99.90;;;;;;5098867;28;20320;-69
2022/01/27 13:34:25;;;;;;;12.57;6.57;;;5.50;99.90;;;;;;5099488;28;20020;-69
2022/01/27 13:37:01;;;;;;;8.82;5.28;;;5.50;99.90;;;;;;5098760;28;20028;-69
2022/01/27 13:42:16;;;;;;;10.45;5.70;;;5.50;99.90;;;;;;5098568;28;20465;-69
2022/01/27 13:44:58;;;;;;;9.48;4.93;;;5.50;99.90;;;;;;5098401;28;20024;-69
2022/01/27 13:47:35;;;;;;;7.97;4.63;;;5.50;99.90;;;;;;5097600;28;20471;-69
2022/01/27 13:50:10;;;;;;;10.15;5.22;;;5.50;99.90;;;;;;5079531;28;20055;-69
2022/01/27 13:52:51;;;;;;;8.13;4.03;;;5.50;99.90;;;;;;5098147;28;20017;-69
2022/01/27 13:55:24;;;;;;;9.68;4.60;;;5.60;99.90;;;;;;5097868;28;20080;-69
2022/01/27 13:58:00;;;;;;;7.72;4.72;;;5.60;99.90;;;;;;5097467;28;20028;-69
2022/01/27 14:00:41;;;;;;;8.35;5.13;;;5.70;99.90;;;;;;5098248;28;20114;-69
2022/01/27 14:03:12;;;;;;;8.00;4.65;;;5.70;99.90;;;;;;5097553;28;20073;-69
2022/01/27 14:05:40;;;;;;;8.52;4.72;;;5.70;99.90;;;;;;5098364;28;20039;-69